Atmore, AL (36503)

6:22 PM CDT on June 28, 2017 (GMT -0500)
Nokomis | | Change Station
Active Advisory: Flood Warning

Elev 269 ft 31.03 °N, 87.59 °W | Updated 12 seconds ago

Overcast
Overcast
78.6 °F
Feels Like 82 °F
N
0.0
Wind Variable Wind from SSE
Gusts 0.0 mph

Today
High -- | Low -- °F
--% Chance of Precip.
Yesterday
High -- | Low -- °F
Precip. -- in
Pressure 30.00 in
Visibility 10.0 miles
Clouds Scattered Clouds 1400 ft
Scattered Clouds 4800 ft
Mostly Cloudy 8000 ft
Mostly Cloudy 20000 ft
Heat Index 82 °F
Dew Point 76 °F
Humidity 92%
Rainfall 0.15 in
Snow Depth Not available.
5:48 AM 7:57 PM
Waxing Crescent, 29% visible
METAR KNSE 282256Z 10007KT 10SM SCT014 SCT048 BKN080 BKN200 23/22 A3004 RMK AO2 SLP157 T1 SET T02330217 $
Pressure 30.00 in
Visibility 10.0 miles
Clouds Scattered Clouds 1400 ft
Scattered Clouds 4800 ft
Mostly Cloudy 8000 ft
Mostly Cloudy 20000 ft
Heat Index 82 °F
Dew Point 76 °F
Humidity 92%
Rainfall 0.15 in
Snow Depth Not available.
5:48 AM 7:57 PM
Waxing Crescent, 29% visible
METAR KNSE 282256Z 10007KT 10SM SCT014 SCT048 BKN080 BKN200 23/22 A3004 RMK AO2 SLP157 T1 SET T02330217 $

Get Your Daily Forecast Email!

Thanks for signing up!

Be on the lookout for a verification email in your inbox.

You'll start receiving severe weather alerts in your inbox..

×

10-Day Weather Forecast

Almanac

Astronomy

Jun. 28, 2017 Rise Set
Actual Time
Civil Twilight
Nautical Twilight
Astronomical Twilight
Moon
Length of Visible Light
Length of Day
Tomorrow will be .
, % of the Moon is Illuminated

Today's Extremes

State Highs State Lows

Community

WunderPhotos

Category 6

Welcome to Category 6. This is the collective home for Weather Underground's featured writeups by Dr. Jeff Masters (right), Bob Henson (left), Chris Burt, and other regular contributors.

Nearby

Air Quality

  Air Quality AQ Index Pollutant
Not available.

Snow Depth

Station Depth Elevation

Earthquake Activity

City Distance Mag. Time & Date
Minimum magnitude displayed is 2.5.

Coastal Water Temperatures

Place Temperature

Stations

Nearby Weather Stations

Station Location Temp. Windchill Dew Point Humidity Wind Precip. Elev Updated Type
                   

Watches & Warnings

Flood Warning
Issued: 3:59 PM CDT Jun. 28, 2017 – National Weather Service

... Flood Warning extended until late Sunday night... the Flood Warning continues
for
the Escambia River near century
* until late Sunday night.
* At 3pm Wednesday the stage was 18.1 feet.
* Minor flooding is occurring and minor flooding is forecast.
* Flood stage is 17 feet.
* The river will continue rising to near 18.4 feet by after midnight tomorrow.
The river will fall below flood stage Sunday before midnight.
* At 19 feet... low lying pasture will flood. Cattle should be moved to higher
ground.


Lat... Lon 3100 8718 3100 8715 3090 8728 3077 8729
3077 8733 3093 8731